Hector, Arkansas
Current Conditions -  °F | °C
As of 1:53 PM on Sunday 21 Dec 2014 (Local Time) from KRUE Reporting Station
Overcast Overcast  
Wind Chill: 46°   Ceiling: 5000
Heat Index: 49°   Visibility: 10mi
Dew Point: 37°   Wind: 7mph
Humidity: 64%   Direction: 100°E
Pressure: 30"   Gusts: NA
Location:  35.47°N, 92.97°W
Report Text: KRUE 211953Z AUTO 10006KT 10SM OVC050 09/03 A3000 RMK AO2 SLP155 T00940028
Loading
Personal Weather Stations






























Interactive Weather Map New forecast layout! Learn more

10-Day Weather Forecast

Advertisements
Track Severe Weather on mobile